createdAt,value
2018-11-02T00:01:17.358Z,60.37
2018-11-02T00:03:45.101Z,50.03
2018-11-02T00:06:12.946Z,55.37
2018-11-02T00:08:40.695Z,48.60
2018-11-02T00:11:08.414Z,50.73
2018-11-02T00:13:36.134Z,48.20
2018-11-02T00:16:04.149Z,50.33
2018-11-02T00:18:31.910Z,48.33
2018-11-02T00:20:59.650Z,48.67
2018-11-02T00:23:27.429Z,50.93
2018-11-02T00:25:55.152Z,51.60
2018-11-02T00:28:22.878Z,46.57
2018-11-02T00:30:50.610Z,51.33
2018-11-02T00:33:18.330Z,48.73
2018-11-02T00:35:46.059Z,49.13
2018-11-02T00:38:13.783Z,58.23
2018-11-02T00:40:41.520Z,55.23
2018-11-02T00:43:09.269Z,64.63
2018-11-02T00:45:37.047Z,65.60
2018-11-02T00:48:05.136Z,71.07
2018-11-02T00:50:32.908Z,76.57
2018-11-02T00:53:00.635Z,67.97
2018-11-02T00:55:28.388Z,79.20
2018-11-02T00:57:56.172Z,72.50
2018-11-02T01:00:23.947Z,81.40
2018-11-02T01:02:51.694Z,65.70
2018-11-02T01:05:19.431Z,68.03
2018-11-02T01:07:47.233Z,64.03
2018-11-02T01:10:14.957Z,63.90
2018-11-02T01:12:42.702Z,66.27
2018-11-02T01:15:10.692Z,71.07
2018-11-02T01:17:38.487Z,66.77
2018-11-02T01:20:08.087Z,67.70
2018-11-02T01:22:35.811Z,62.40
2018-11-02T01:25:03.670Z,59.87
2018-11-02T01:27:31.425Z,57.63
2018-11-02T01:29:59.177Z,60.77
2018-11-02T01:32:26.914Z,52.87
2018-11-02T01:34:54.659Z,55.90
2018-11-02T01:37:22.422Z,51.40
2018-11-02T01:39:50.162Z,57.30
2018-11-02T01:42:17.898Z,46.60
2018-11-02T01:44:45.640Z,50.30
2018-11-02T01:47:13.462Z,45.50
2018-11-02T01:49:41.223Z,48.13
2018-11-02T01:52:08.988Z,44.50
2018-11-02T01:54:36.767Z,44.20
2018-11-02T01:57:04.684Z,39.13
2018-11-02T01:59:32.419Z,40.80
2018-11-02T02:02:00.157Z,44.70
2018-11-02T02:04:27.891Z,39.07
2018-11-02T02:06:55.647Z,41.13
2018-11-02T02:09:23.362Z,42.97
2018-11-02T02:11:51.098Z,46.03
2018-11-02T02:14:18.834Z,44.83
2018-11-02T02:16:46.566Z,55.43
2018-11-02T02:19:14.334Z,64.70
2018-11-02T02:21:42.071Z,70.23
2018-11-02T02:24:09.785Z,74.83
2018-11-02T02:26:37.508Z,73.10
2018-11-02T02:29:05.568Z,84.23
2018-11-02T02:31:33.322Z,95.83
2018-11-02T02:34:01.077Z,92.97
2018-11-02T02:36:28.812Z,101.23
2018-11-02T02:38:56.610Z,83.60
2018-11-02T02:41:24.367Z,82.13
2018-11-02T02:43:52.210Z,93.53
2018-11-02T02:46:19.945Z,82.40
2018-11-02T02:48:47.690Z,87.30
2018-11-02T02:51:15.441Z,88.37
2018-11-02T02:53:43.363Z,96.70
2018-11-02T02:56:11.085Z,88.67
2018-11-02T02:58:38.854Z,86.33
2018-11-02T03:01:06.612Z,81.00
2018-11-02T03:03:34.354Z,82.20
2018-11-02T03:06:02.090Z,69.97
2018-11-02T03:08:29.809Z,64.40
2018-11-02T03:10:57.673Z,58.17
2018-11-02T03:13:25.299Z,64.27
2018-11-02T03:15:53.036Z,58.00
2018-11-02T03:18:20.857Z,57.27
2018-11-02T03:20:48.531Z,53.37
2018-11-02T03:23:16.303Z,51.23
2018-11-02T03:25:44.031Z,56.87
2018-11-02T03:28:11.766Z,59.37
2018-11-02T03:30:39.502Z,54.17
2018-11-02T03:33:07.257Z,60.80
2018-11-02T03:35:34.977Z,60.87
2018-11-02T03:38:02.728Z,67.17
2018-11-02T03:40:30.460Z,66.53
2018-11-02T03:42:58.205Z,62.37
2018-11-02T03:45:25.939Z,65.37
2018-11-02T03:47:53.780Z,69.27
2018-11-02T03:50:21.846Z,65.50
2018-11-02T03:52:49.573Z,64.63
2018-11-02T03:55:17.350Z,70.23
2018-11-02T03:57:45.099Z,66.27
2018-11-02T04:00:13.339Z,67.27
2018-11-02T04:02:41.143Z,73.53
2018-11-02T04:05:09.746Z,69.83
2018-11-02T04:07:37.504Z,67.60
2018-11-02T04:10:06.672Z,73.07
2018-11-02T04:12:34.399Z,78.60
2018-11-02T04:15:02.213Z,76.87
2018-11-02T04:17:29.958Z,76.63
2018-11-02T04:19:57.739Z,80.37
2018-11-02T04:22:25.502Z,83.93
2018-11-02T04:24:53.286Z,81.53
2018-11-02T04:27:21.070Z,92.50
2018-11-02T04:29:48.819Z,96.43
2018-11-02T04:32:16.567Z,97.83
2018-11-02T04:34:44.318Z,101.20
2018-11-02T04:37:12.083Z,99.03
2018-11-02T04:39:39.800Z,92.47
2018-11-02T04:42:07.574Z,95.67
2018-11-02T04:44:35.294Z,82.67
2018-11-02T04:47:03.096Z,69.43
2018-11-02T04:49:30.843Z,64.37
2018-11-02T04:51:58.631Z,79.57
2018-11-02T04:54:26.402Z,86.27
2018-11-02T04:56:54.186Z,75.67
2018-11-02T04:59:22.010Z,76.90
2018-11-02T05:01:49.742Z,80.87
2018-11-02T05:04:17.470Z,79.73
2018-11-02T05:06:45.214Z,78.40
2018-11-02T05:09:12.942Z,79.70
2018-11-02T05:11:40.700Z,81.27
2018-11-02T05:14:08.922Z,84.93
2018-11-02T05:16:36.651Z,82.00
2018-11-02T05:19:04.591Z,85.93
2018-11-02T05:21:32.351Z,108.13
2018-11-02T05:24:00.080Z,93.43
2018-11-02T05:26:27.839Z,84.37
2018-11-02T05:28:55.558Z,94.83
2018-11-02T05:31:23.337Z,91.80
2018-11-02T05:33:51.074Z,102.00
2018-11-02T05:36:18.854Z,97.83
2018-11-02T05:38:46.615Z,88.83
2018-11-02T05:41:14.338Z,86.53
2018-11-02T05:43:42.098Z,82.13
2018-11-02T05:46:09.841Z,76.80
2018-11-02T05:48:37.576Z,69.00
2018-11-02T05:51:05.361Z,71.60
2018-11-02T05:53:33.141Z,75.13
2018-11-02T05:56:00.987Z,81.00
2018-11-02T05:58:28.856Z,72.30
2018-11-02T06:00:56.643Z,68.13
2018-11-02T06:03:24.365Z,64.03
2018-11-02T06:05:52.095Z,64.33
2018-11-02T06:08:19.843Z,63.23
2018-11-02T06:10:47.577Z,65.93
2018-11-02T06:13:15.517Z,78.43
2018-11-02T06:15:43.406Z,68.50
2018-11-02T06:18:11.434Z,75.00
2018-11-02T06:20:39.194Z,77.33
2018-11-02T06:23:06.966Z,81.77
2018-11-02T06:25:34.768Z,85.83
2018-11-02T06:28:02.543Z,83.33
2018-11-02T06:30:30.308Z,88.23
2018-11-02T06:32:58.023Z,87.97
2018-11-02T06:35:25.912Z,81.00
2018-11-02T06:37:53.691Z,82.47
2018-11-02T06:40:21.453Z,87.90
2018-11-02T06:42:49.223Z,89.33
2018-11-02T06:45:16.992Z,80.13
2018-11-02T06:47:44.771Z,120.97
2018-11-02T06:50:12.530Z,125.57
2018-11-02T06:52:40.270Z,121.73
2018-11-02T06:55:08.940Z,114.33
2018-11-02T06:57:36.700Z,97.50
2018-11-02T07:00:07.568Z,95.13
2018-11-02T07:02:34.955Z,86.10
2018-11-02T07:05:02.723Z,96.97
2018-11-02T07:07:30.507Z,128.13
2018-11-02T07:09:58.118Z,111.10
2018-11-02T07:12:25.814Z,104.13
2018-11-02T07:14:53.556Z,108.33
2018-11-02T07:17:21.307Z,107.90
2018-11-02T07:19:48.998Z,122.73
2018-11-02T07:22:16.699Z,110.13
2018-11-02T07:24:44.414Z,91.53
2018-11-02T07:27:12.105Z,108.17
2018-11-02T07:29:39.845Z,120.30
2018-11-02T07:32:07.593Z,105.60
2018-11-02T07:34:37.101Z,128.50
2018-11-02T07:37:04.944Z,161.27
2018-11-02T07:39:33.727Z,129.03
2018-11-02T07:42:01.894Z,130.40
2018-11-02T07:44:29.702Z,137.30
2018-11-02T07:46:58.163Z,151.37
2018-11-02T07:49:26.221Z,138.67
2018-11-02T07:51:53.966Z,123.83
2018-11-02T07:54:21.971Z,124.43
2018-11-02T07:56:49.738Z,126.97
2018-11-02T07:59:17.483Z,140.40
2018-11-02T08:01:45.787Z,153.20
2018-11-02T08:04:13.499Z,138.80
2018-11-02T08:06:41.217Z,111.07
2018-11-02T08:09:10.974Z,133.30
2018-11-02T08:11:38.775Z,126.87
2018-11-02T08:14:06.652Z,136.60
2018-11-02T08:16:34.579Z,139.37
2018-11-02T08:19:16.267Z,115.23
2018-11-02T08:22:15.231Z,126.57
2018-11-02T08:39:08.025Z,61.17
2018-11-02T08:41:36.218Z,55.10
2018-11-02T08:44:04.061Z,57.03
2018-11-02T08:46:31.825Z,54.70
2018-11-02T08:48:59.507Z,74.60
2018-11-02T08:51:27.241Z,80.90
2018-11-02T08:53:54.935Z,146.17
2018-11-02T08:56:22.645Z,145.97
2018-11-02T08:58:52.558Z,105.43
2018-11-02T09:01:20.338Z,79.80
2018-11-02T09:03:48.027Z,71.63
2018-11-02T09:06:15.698Z,53.87
2018-11-02T09:08:43.382Z,46.83
2018-11-02T09:11:11.143Z,59.97
2018-11-02T09:13:38.876Z,52.57
2018-11-02T09:16:06.637Z,67.13
2018-11-02T09:18:34.429Z,97.40
2018-11-02T09:21:02.168Z,117.27
2018-11-02T09:23:29.960Z,91.17
2018-11-02T09:25:57.711Z,112.83
2018-11-02T09:28:25.516Z,90.30
2018-11-02T09:30:53.262Z,65.03
2018-11-02T09:33:21.047Z,66.80
2018-11-02T09:35:48.778Z,73.37
2018-11-02T09:38:16.502Z,58.73
2018-11-02T09:40:44.259Z,59.07
2018-11-02T09:43:12.282Z,66.03
2018-11-02T09:45:40.130Z,77.17
2018-11-02T09:48:07.854Z,85.30
2018-11-02T09:50:35.683Z,65.80
2018-11-02T09:53:03.571Z,53.40
2018-11-02T09:55:31.334Z,55.63
2018-11-02T09:57:59.127Z,53.13
2018-11-02T10:00:26.926Z,66.07
2018-11-02T10:02:54.738Z,36.00
2018-11-02T10:05:22.588Z,34.60
2018-11-02T10:07:50.413Z,36.00
2018-11-02T10:10:18.207Z,40.40
2018-11-02T10:12:45.987Z,36.37
2018-11-02T10:15:14.859Z,32.33
2018-11-02T10:17:42.709Z,43.17
2018-11-02T10:20:11.129Z,33.60
2018-11-02T10:22:38.973Z,31.43
2018-11-02T10:25:07.449Z,38.17
2018-11-02T10:27:35.822Z,29.37
2018-11-02T10:30:03.971Z,26.83
2018-11-02T10:32:31.888Z,37.60
2018-11-02T10:35:00.350Z,35.50
2018-11-02T10:37:28.244Z,28.57
2018-11-02T10:39:56.177Z,28.77
2018-11-02T10:42:24.085Z,29.33
2018-11-02T10:44:52.091Z,27.83
2018-11-02T10:47:20.363Z,30.53
2018-11-02T10:49:48.130Z,29.20
2018-11-02T10:52:15.887Z,31.03
2018-11-02T10:54:43.716Z,30.07
2018-11-02T10:57:11.434Z,26.77
2018-11-02T10:59:39.219Z,31.73
2018-11-02T11:02:13.338Z,31.33
2018-11-02T11:04:41.138Z,32.90
2018-11-02T11:07:08.895Z,27.50
2018-11-02T11:09:36.762Z,28.17
2018-11-02T11:12:04.641Z,31.53
2018-11-02T11:14:32.321Z,33.97
2018-11-02T11:17:00.106Z,29.17
2018-11-02T11:19:28.552Z,32.60
2018-11-02T11:21:56.350Z,28.57
2018-11-02T11:24:24.116Z,34.43
2018-11-02T11:26:51.894Z,29.40
2018-11-02T11:29:19.711Z,30.50
2018-11-02T11:31:47.471Z,73.27
2018-11-02T11:34:15.318Z,31.83
2018-11-02T11:36:43.123Z,30.93
2018-11-02T11:39:12.614Z,36.17
2018-11-02T11:41:40.398Z,31.37
2018-11-02T11:44:08.206Z,28.33
2018-11-02T11:46:36.031Z,30.67
2018-11-02T11:49:04.387Z,27.97
2018-11-02T11:51:32.180Z,33.37
2018-11-02T11:53:59.986Z,30.33
2018-11-02T11:56:27.758Z,30.77
2018-11-02T11:58:55.558Z,32.87
2018-11-02T12:01:23.430Z,30.13
2018-11-02T12:03:51.201Z,32.30
2018-11-02T12:06:19.011Z,36.47
2018-11-02T12:08:46.823Z,35.03
2018-11-02T12:11:14.613Z,29.13
2018-11-02T12:13:42.446Z,29.20
2018-11-02T12:16:10.257Z,32.33
2018-11-02T12:18:38.010Z,31.53
2018-11-02T12:21:06.202Z,34.20
2018-11-02T12:23:34.083Z,29.87
2018-11-02T12:26:01.864Z,31.23
2018-11-02T12:28:29.658Z,33.47
2018-11-02T12:30:57.419Z,33.63
2018-11-02T12:33:25.450Z,32.17
2018-11-02T12:35:53.203Z,29.00
2018-11-02T12:38:20.946Z,29.53
2018-11-02T12:40:48.711Z,31.63
2018-11-02T12:43:17.582Z,31.27
2018-11-02T12:45:45.313Z,29.47
2018-11-02T12:48:13.073Z,29.40
2018-11-02T12:50:40.941Z,35.77
2018-11-02T12:53:08.664Z,32.93
2018-11-02T12:55:36.418Z,32.30
2018-11-02T12:58:04.311Z,32.63
2018-11-02T13:00:32.057Z,28.80
2018-11-02T13:02:59.842Z,28.57
2018-11-02T13:05:28.634Z,28.23
2018-11-02T13:07:56.359Z,28.07
2018-11-02T13:10:24.189Z,30.87
2018-11-02T13:12:51.978Z,29.73
2018-11-02T13:15:21.850Z,26.27
2018-11-02T13:17:49.926Z,26.57
2018-11-02T13:20:17.789Z,28.53
2018-11-02T13:22:46.571Z,24.13
2018-11-02T13:25:15.716Z,28.07
2018-11-02T13:27:43.936Z,26.00
2018-11-02T13:30:11.946Z,32.00
2018-11-02T13:32:39.883Z,30.03
2018-11-02T13:35:10.100Z,31.03
2018-11-02T13:37:37.875Z,27.17
2018-11-02T13:40:07.070Z,24.43
2018-11-02T13:42:34.857Z,29.90
2018-11-02T13:45:02.733Z,24.30
2018-11-02T13:47:30.490Z,25.57
2018-11-02T13:49:58.334Z,25.70
2018-11-02T13:52:26.133Z,24.77
2018-11-02T13:54:53.895Z,22.50
2018-11-02T13:57:21.683Z,26.07
2018-11-02T13:59:49.445Z,30.93
2018-11-02T14:02:17.209Z,32.87
2018-11-02T14:04:44.986Z,27.03
2018-11-02T14:07:12.753Z,26.60
2018-11-02T14:09:40.474Z,28.23
2018-11-02T14:12:08.292Z,25.77
2018-11-02T14:14:36.051Z,29.20
2018-11-02T14:17:04.753Z,28.00
2018-11-02T14:19:32.506Z,30.97
2018-11-02T14:22:00.271Z,27.67
2018-11-02T14:24:28.030Z,30.47
2018-11-02T14:26:55.786Z,29.73
2018-11-02T14:29:23.600Z,30.73
2018-11-02T14:31:51.327Z,33.20
2018-11-02T14:34:19.074Z,32.80
2018-11-02T14:36:46.826Z,34.97
2018-11-02T14:39:14.962Z,35.53
2018-11-02T14:41:43.812Z,33.80
2018-11-02T14:44:11.575Z,37.97
2018-11-02T14:46:39.722Z,33.20
2018-11-02T14:49:07.545Z,33.47
2018-11-02T14:51:35.554Z,38.57
2018-11-02T14:54:03.386Z,33.77
2018-11-02T14:56:31.150Z,36.43
2018-11-02T14:58:59.388Z,39.93
2018-11-02T15:01:27.655Z,34.40
2018-11-02T15:03:55.460Z,42.00
2018-11-02T15:06:23.224Z,37.13
2018-11-02T15:08:50.986Z,35.47
2018-11-02T15:11:18.835Z,37.90
2018-11-02T15:13:46.612Z,38.60
2018-11-02T15:16:14.489Z,40.33
2018-11-02T15:18:42.241Z,42.47
2018-11-02T15:21:10.014Z,41.83
2018-11-02T15:23:37.771Z,44.40
2018-11-02T15:26:05.874Z,41.83
2018-11-02T15:28:33.637Z,42.07
2018-11-02T15:31:01.413Z,40.07
2018-11-02T15:33:29.159Z,45.13
2018-11-02T15:35:56.917Z,46.10
2018-11-02T15:38:24.734Z,51.13
2018-11-02T15:40:52.462Z,113.00
2018-11-02T15:43:20.227Z,53.03
2018-11-02T15:45:47.958Z,47.90
2018-11-02T15:48:15.826Z,45.13
2018-11-02T15:50:43.596Z,47.53
2018-11-02T15:53:11.372Z,44.47
2018-11-02T15:55:39.102Z,45.17
2018-11-02T15:58:06.864Z,42.33
2018-11-02T16:00:34.674Z,46.53
2018-11-02T16:03:02.401Z,46.23
2018-11-02T16:05:30.154Z,51.03
2018-11-02T16:07:57.930Z,46.20
2018-11-02T16:10:25.683Z,44.80
2018-11-02T16:12:59.986Z,52.20
2018-11-02T16:15:27.743Z,46.83
2018-11-02T16:17:55.495Z,53.60
2018-11-02T16:20:23.330Z,47.50
2018-11-02T16:22:51.388Z,45.97
2018-11-02T16:25:19.191Z,47.97
2018-11-02T16:27:46.936Z,45.87
2018-11-02T16:30:14.716Z,43.30
2018-11-02T16:32:42.439Z,47.27
2018-11-02T16:35:10.816Z,45.17
2018-11-02T16:37:38.554Z,48.17
2018-11-02T16:40:08.923Z,47.17
2018-11-02T16:42:36.666Z,49.13
2018-11-02T16:45:05.414Z,48.03
2018-11-02T16:47:33.191Z,49.17
2018-11-02T16:50:00.946Z,54.37
2018-11-02T16:52:28.716Z,51.27
2018-11-02T16:54:56.478Z,53.53
2018-11-02T16:57:24.360Z,49.13
2018-11-02T16:59:52.252Z,54.23
2018-11-02T17:02:20.014Z,48.53
2018-11-02T17:04:47.842Z,51.63
2018-11-02T17:07:15.543Z,52.07
2018-11-02T17:09:43.271Z,53.07
2018-11-02T17:12:11.048Z,56.57
2018-11-02T17:14:38.841Z,53.57
2018-11-02T17:17:06.554Z,59.37
2018-11-02T17:19:34.298Z,56.93
2018-11-02T17:22:02.057Z,56.13
2018-11-02T17:24:29.810Z,59.37
2018-11-02T17:26:57.566Z,54.90
2018-11-02T17:29:25.315Z,58.90
2018-11-02T17:31:53.098Z,58.40
2018-11-02T17:34:20.849Z,55.20
2018-11-02T17:36:48.612Z,57.90
2018-11-02T17:39:16.358Z,55.13
2018-11-02T17:41:44.112Z,52.77
2018-11-02T17:44:11.883Z,52.17
2018-11-02T17:46:39.642Z,46.93
2018-11-02T17:49:07.382Z,48.83
2018-11-02T17:51:35.137Z,47.70
2018-11-02T17:54:02.898Z,47.03
2018-11-02T17:56:30.633Z,48.63
2018-11-02T17:58:58.380Z,56.07
2018-11-02T18:01:26.202Z,50.00
2018-11-02T18:03:53.944Z,50.20
2018-11-02T18:06:21.711Z,47.67
2018-11-02T18:08:49.471Z,50.27
2018-11-02T18:11:17.269Z,49.90
2018-11-02T18:13:45.182Z,55.20
2018-11-02T18:16:12.974Z,50.27
2018-11-02T18:18:41.111Z,53.43
2018-11-02T18:21:08.832Z,51.43
2018-11-02T18:23:36.561Z,51.13
2018-11-02T18:26:04.923Z,50.67
2018-11-02T18:28:32.678Z,56.90
2018-11-02T18:31:00.454Z,52.80
2018-11-02T18:33:28.250Z,56.30
2018-11-02T18:35:56.014Z,55.10
2018-11-02T18:38:23.747Z,57.23
2018-11-02T18:40:51.502Z,57.07
2018-11-02T18:43:19.227Z,55.87
2018-11-02T18:45:46.962Z,54.23
2018-11-02T18:48:14.816Z,58.50
2018-11-02T18:50:42.472Z,57.37
2018-11-02T18:53:10.335Z,57.73
2018-11-02T18:55:38.075Z,57.60
2018-11-02T18:58:06.205Z,61.10
2018-11-02T19:00:33.840Z,57.93
2018-11-02T19:03:01.667Z,59.30
2018-11-02T19:05:29.474Z,57.00
2018-11-02T19:07:57.162Z,59.90
2018-11-02T19:10:24.934Z,54.90
2018-11-02T19:12:52.689Z,58.00
2018-11-02T19:15:20.454Z,63.27
2018-11-02T19:17:48.227Z,63.87
2018-11-02T19:20:16.316Z,63.47
2018-11-02T19:22:44.167Z,63.40
2018-11-02T19:25:13.007Z,72.70
2018-11-02T19:27:40.867Z,62.03
2018-11-02T19:30:10.439Z,60.83
2018-11-02T19:32:38.308Z,67.80
2018-11-02T19:35:06.823Z,64.07
2018-11-02T19:37:34.523Z,63.00
2018-11-02T19:40:02.339Z,62.30
2018-11-02T19:42:30.102Z,58.90
2018-11-02T19:44:57.988Z,57.47
2018-11-02T19:47:31.297Z,55.27
2018-11-02T19:49:59.055Z,65.83
2018-11-02T19:52:26.814Z,53.57
2018-11-02T19:54:54.578Z,54.93
2018-11-02T19:57:22.447Z,50.83
2018-11-02T19:59:50.154Z,48.87
2018-11-02T20:02:17.911Z,47.17
2018-11-02T20:04:45.648Z,45.40
2018-11-02T20:07:13.378Z,41.17
2018-11-02T20:09:41.107Z,42.67
2018-11-02T20:12:08.854Z,44.33
2018-11-02T20:14:36.619Z,44.30
2018-11-02T20:17:04.442Z,44.03
2018-11-02T20:19:32.198Z,43.20
2018-11-02T20:21:59.954Z,49.20
2018-11-02T20:24:27.722Z,42.73
2018-11-02T20:26:55.491Z,39.87
2018-11-02T20:29:23.224Z,43.40
2018-11-02T20:31:51.096Z,39.93
2018-11-02T20:34:18.939Z,39.47
2018-11-02T20:36:46.683Z,38.03
2018-11-02T20:39:14.526Z,34.40
2018-11-02T20:41:42.214Z,29.53
2018-11-02T20:44:10.295Z,30.97
2018-11-02T20:46:38.051Z,28.60
2018-11-02T20:49:05.946Z,29.60
2018-11-02T20:51:33.760Z,28.47
2018-11-02T20:54:01.552Z,29.37
2018-11-02T20:56:29.374Z,25.83
2018-11-02T20:58:57.127Z,27.10
2018-11-02T21:01:24.879Z,26.37
2018-11-02T21:03:52.695Z,25.60
2018-11-02T21:06:20.469Z,25.40
2018-11-02T21:08:48.287Z,24.33
2018-11-02T21:11:15.986Z,26.20
2018-11-02T21:13:43.755Z,27.30
2018-11-02T21:16:11.527Z,25.87
2018-11-02T21:18:39.310Z,24.87
2018-11-02T21:21:07.099Z,27.07
2018-11-02T21:23:34.781Z,25.53
2018-11-02T21:26:02.526Z,27.80
2018-11-02T21:28:30.287Z,28.77
2018-11-02T21:30:58.035Z,25.90
2018-11-02T21:33:25.782Z,29.43
2018-11-02T21:35:53.522Z,30.67
2018-11-02T21:38:21.382Z,26.60
2018-11-02T21:40:49.052Z,29.93
2018-11-02T21:43:16.795Z,26.10
2018-11-02T21:45:44.579Z,34.00
2018-11-02T21:48:12.991Z,28.40
2018-11-02T21:50:40.758Z,26.83
2018-11-02T21:53:08.482Z,27.93
2018-11-02T21:55:36.222Z,24.13
2018-11-02T21:58:04.046Z,27.07
2018-11-02T22:00:31.828Z,24.17
2018-11-02T22:02:59.586Z,23.97
2018-11-02T22:05:27.321Z,23.10
2018-11-02T22:07:55.061Z,24.53
2018-11-02T22:10:22.799Z,25.03
2018-11-02T22:12:50.539Z,28.60
2018-11-02T22:15:18.270Z,26.17
2018-11-02T22:17:46.014Z,21.10
2018-11-02T22:20:14.606Z,26.73
2018-11-02T22:22:42.410Z,22.97
2018-11-02T22:25:11.117Z,22.67
2018-11-02T22:27:38.869Z,22.53
2018-11-02T22:30:09.030Z,20.77
2018-11-02T22:32:36.780Z,22.30
2018-11-02T22:35:04.706Z,22.33
2018-11-02T22:37:32.492Z,21.37
2018-11-02T22:40:00.224Z,23.00
2018-11-02T22:42:27.956Z,17.93
2018-11-02T22:44:55.730Z,21.10
2018-11-02T22:47:23.470Z,20.70
2018-11-02T22:49:51.198Z,24.20
2018-11-02T22:52:19.206Z,22.33
2018-11-02T22:54:46.986Z,19.63
2018-11-02T22:57:14.796Z,21.33
2018-11-02T22:59:42.757Z,19.63
2018-11-02T23:02:10.514Z,21.97
2018-11-02T23:04:38.270Z,21.83
2018-11-02T23:07:06.158Z,18.50
2018-11-02T23:09:33.974Z,19.83
2018-11-02T23:12:01.718Z,22.00
2018-11-02T23:14:29.454Z,19.73
2018-11-02T23:16:57.351Z,20.90
2018-11-02T23:19:25.104Z,19.73
2018-11-02T23:21:52.873Z,19.63
2018-11-02T23:24:20.614Z,16.17
2018-11-02T23:26:48.373Z,20.03
2018-11-02T23:29:16.120Z,17.20
2018-11-02T23:31:43.883Z,19.87
2018-11-02T23:34:11.704Z,20.07
2018-11-02T23:36:39.502Z,23.83
2018-11-02T23:39:07.938Z,22.63
2018-11-02T23:41:35.711Z,19.43
2018-11-02T23:44:03.637Z,19.60
2018-11-02T23:46:31.407Z,17.23
2018-11-02T23:48:59.180Z,19.47
2018-11-02T23:51:26.943Z,21.53
2018-11-02T23:53:54.735Z,20.93
2018-11-02T23:56:22.509Z,17.53
2018-11-02T23:58:50.238Z,17.17
